sensor_id;sensor_type;location;lat;lon;timestamp;P1;durP1;ratioP1;P2;durP2;ratioP2
22786;SDS011;63134;52.020;4.714;2022-10-13T00:00:59;31.67;;;14.15;;
22786;SDS011;63134;52.020;4.714;2022-10-13T00:03:51;24.08;;;13.95;;
22786;SDS011;63134;52.020;4.714;2022-10-13T00:06:42;33.88;;;14.05;;
22786;SDS011;63134;52.020;4.714;2022-10-13T00:09:27;27.48;;;14.90;;
22786;SDS011;63134;52.020;4.714;2022-10-13T00:12:13;24.55;;;12.93;;
22786;SDS011;63134;52.020;4.714;2022-10-13T00:15:05;30.02;;;14.35;;
22786;SDS011;63134;52.020;4.714;2022-10-13T00:17:51;26.40;;;13.32;;
22786;SDS011;63134;52.020;4.714;2022-10-13T00:20:41;27.02;;;14.30;;
22786;SDS011;63134;52.020;4.714;2022-10-13T00:23:28;29.63;;;15.07;;
22786;SDS011;63134;52.020;4.714;2022-10-13T00:26:14;34.88;;;13.60;;
22786;SDS011;63134;52.020;4.714;2022-10-13T00:29:00;34.20;;;14.25;;
22786;SDS011;63134;52.020;4.714;2022-10-13T00:31:48;28.58;;;14.05;;
22786;SDS011;63134;52.020;4.714;2022-10-13T00:34:37;32.15;;;15.10;;
22786;SDS011;63134;52.020;4.714;2022-10-13T00:37:24;26.35;;;14.57;;
22786;SDS011;63134;52.020;4.714;2022-10-13T00:40:09;30.58;;;15.27;;
22786;SDS011;63134;52.020;4.714;2022-10-13T00:42:55;31.50;;;15.10;;
22786;SDS011;63134;52.020;4.714;2022-10-13T00:45:41;32.75;;;15.18;;
22786;SDS011;63134;52.020;4.714;2022-10-13T00:48:27;34.22;;;14.63;;
22786;SDS011;63134;52.020;4.714;2022-10-13T00:51:15;27.73;;;15.05;;
22786;SDS011;63134;52.020;4.714;2022-10-13T00:54:05;28.65;;;15.13;;
22786;SDS011;63134;52.020;4.714;2022-10-13T00:56:53;33.50;;;15.18;;
22786;SDS011;63134;52.020;4.714;2022-10-13T00:59:43;31.05;;;15.30;;
22786;SDS011;63134;52.020;4.714;2022-10-13T01:02:30;28.30;;;15.20;;
22786;SDS011;63134;52.020;4.714;2022-10-13T01:05:19;33.70;;;15.50;;
22786;SDS011;63134;52.020;4.714;2022-10-13T01:08:05;30.88;;;15.43;;
22786;SDS011;63134;52.020;4.714;2022-10-13T01:11:09;33.70;;;15.65;;
22786;SDS011;63134;52.020;4.714;2022-10-13T01:17:19;30.40;;;15.40;;
22786;SDS011;63134;52.020;4.714;2022-10-13T01:20:31;32.58;;;15.77;;
22786;SDS011;63134;52.020;4.714;2022-10-13T01:26:52;30.20;;;15.63;;
22786;SDS011;63134;52.020;4.714;2022-10-13T01:30:06;30.50;;;15.23;;
22786;SDS011;63134;52.020;4.714;2022-10-13T01:36:01;35.25;;;16.23;;
22786;SDS011;63134;52.020;4.714;2022-10-13T01:38:58;27.98;;;16.27;;
22786;SDS011;63134;52.020;4.714;2022-10-13T01:41:52;27.98;;;16.45;;
22786;SDS011;63134;52.020;4.714;2022-10-13T01:44:49;35.95;;;16.35;;
22786;SDS011;63134;52.020;4.714;2022-10-13T01:47:38;27.55;;;15.60;;
22786;SDS011;63134;52.020;4.714;2022-10-13T01:50:26;30.73;;;16.80;;
22786;SDS011;63134;52.020;4.714;2022-10-13T01:53:12;28.35;;;16.70;;
22786;SDS011;63134;52.020;4.714;2022-10-13T01:56:03;28.88;;;16.75;;
22786;SDS011;63134;52.020;4.714;2022-10-13T01:58:49;26.83;;;16.08;;
22786;SDS011;63134;52.020;4.714;2022-10-13T02:05:05;29.60;;;16.95;;
22786;SDS011;63134;52.020;4.714;2022-10-13T02:08:07;32.83;;;16.58;;
22786;SDS011;63134;52.020;4.714;2022-10-13T02:11:20;30.55;;;17.95;;
22786;SDS011;63134;52.020;4.714;2022-10-13T02:17:03;37.13;;;18.33;;
22786;SDS011;63134;52.020;4.714;2022-10-13T02:19:51;38.80;;;18.15;;
22786;SDS011;63134;52.020;4.714;2022-10-13T02:22:42;37.03;;;19.33;;
22786;SDS011;63134;52.020;4.714;2022-10-13T02:25:32;36.47;;;18.05;;
22786;SDS011;63134;52.020;4.714;2022-10-13T02:28:18;33.03;;;17.95;;
22786;SDS011;63134;52.020;4.714;2022-10-13T02:31:04;32.33;;;17.23;;
22786;SDS011;63134;52.020;4.714;2022-10-13T02:33:52;35.80;;;18.05;;
22786;SDS011;63134;52.020;4.714;2022-10-13T02:36:37;29.75;;;18.30;;
22786;SDS011;63134;52.020;4.714;2022-10-13T02:39:23;24.27;;;16.83;;
22786;SDS011;63134;52.020;4.714;2022-10-13T02:42:08;29.73;;;17.55;;
22786;SDS011;63134;52.020;4.714;2022-10-13T02:44:54;30.30;;;18.08;;
22786;SDS011;63134;52.020;4.714;2022-10-13T02:47:39;31.08;;;16.98;;
22786;SDS011;63134;52.020;4.714;2022-10-13T02:50:25;30.10;;;17.95;;
22786;SDS011;63134;52.020;4.714;2022-10-13T02:53:10;32.85;;;16.42;;
22786;SDS011;63134;52.020;4.714;2022-10-13T02:56:00;25.85;;;16.63;;
22786;SDS011;63134;52.020;4.714;2022-10-13T02:58:47;34.15;;;17.77;;
22786;SDS011;63134;52.020;4.714;2022-10-13T03:01:33;33.05;;;17.05;;
22786;SDS011;63134;52.020;4.714;2022-10-13T03:04:19;30.83;;;19.13;;
22786;SDS011;63134;52.020;4.714;2022-10-13T03:07:05;30.42;;;18.40;;
22786;SDS011;63134;52.020;4.714;2022-10-13T03:09:53;38.35;;;19.73;;
22786;SDS011;63134;52.020;4.714;2022-10-13T03:12:39;35.80;;;19.48;;
22786;SDS011;63134;52.020;4.714;2022-10-13T03:15:25;43.25;;;20.63;;
22786;SDS011;63134;52.020;4.714;2022-10-13T03:18:13;36.72;;;21.60;;
22786;SDS011;63134;52.020;4.714;2022-10-13T03:20:59;43.35;;;20.63;;
22786;SDS011;63134;52.020;4.714;2022-10-13T03:23:46;46.63;;;22.45;;
22786;SDS011;63134;52.020;4.714;2022-10-13T03:26:31;36.63;;;21.13;;
22786;SDS011;63134;52.020;4.714;2022-10-13T03:29:17;42.40;;;22.23;;
22786;SDS011;63134;52.020;4.714;2022-10-13T03:32:06;35.63;;;20.77;;
22786;SDS011;63134;52.020;4.714;2022-10-13T03:34:52;41.53;;;22.65;;
22786;SDS011;63134;52.020;4.714;2022-10-13T03:37:37;42.08;;;23.10;;
22786;SDS011;63134;52.020;4.714;2022-10-13T03:40:23;48.05;;;22.83;;
22786;SDS011;63134;52.020;4.714;2022-10-13T03:43:08;35.05;;;22.48;;
22786;SDS011;63134;52.020;4.714;2022-10-13T03:45:59;45.00;;;22.92;;
22786;SDS011;63134;52.020;4.714;2022-10-13T03:48:46;36.28;;;22.27;;
22786;SDS011;63134;52.020;4.714;2022-10-13T03:51:32;43.08;;;22.73;;
22786;SDS011;63134;52.020;4.714;2022-10-13T03:54:18;36.15;;;21.83;;
22786;SDS011;63134;52.020;4.714;2022-10-13T03:57:05;44.47;;;23.10;;
22786;SDS011;63134;52.020;4.714;2022-10-13T03:59:50;47.97;;;22.52;;
22786;SDS011;63134;52.020;4.714;2022-10-13T04:02:36;48.72;;;22.17;;
22786;SDS011;63134;52.020;4.714;2022-10-13T04:05:21;37.28;;;22.13;;
22786;SDS011;63134;52.020;4.714;2022-10-13T04:08:07;37.42;;;22.80;;
22786;SDS011;63134;52.020;4.714;2022-10-13T04:11:06;37.05;;;21.10;;
22786;SDS011;63134;52.020;4.714;2022-10-13T04:13:56;41.67;;;21.08;;
22786;SDS011;63134;52.020;4.714;2022-10-13T04:16:41;43.25;;;22.90;;
22786;SDS011;63134;52.020;4.714;2022-10-13T04:19:30;40.58;;;20.27;;
22786;SDS011;63134;52.020;4.714;2022-10-13T04:22:22;40.70;;;21.02;;
22786;SDS011;63134;52.020;4.714;2022-10-13T04:25:07;43.33;;;21.85;;
22786;SDS011;63134;52.020;4.714;2022-10-13T04:28:03;37.45;;;21.20;;
22786;SDS011;63134;52.020;4.714;2022-10-13T04:30:53;40.03;;;20.58;;
22786;SDS011;63134;52.020;4.714;2022-10-13T04:33:38;33.83;;;20.65;;
22786;SDS011;63134;52.020;4.714;2022-10-13T04:36:24;43.08;;;20.70;;
22786;SDS011;63134;52.020;4.714;2022-10-13T04:39:10;50.72;;;21.90;;
22786;SDS011;63134;52.020;4.714;2022-10-13T04:41:56;36.80;;;20.13;;
22786;SDS011;63134;52.020;4.714;2022-10-13T04:44:41;36.65;;;19.88;;
22786;SDS011;63134;52.020;4.714;2022-10-13T04:47:28;35.70;;;20.02;;
22786;SDS011;63134;52.020;4.714;2022-10-13T04:50:21;40.45;;;20.52;;
22786;SDS011;63134;52.020;4.714;2022-10-13T04:53:15;42.78;;;22.60;;
22786;SDS011;63134;52.020;4.714;2022-10-13T04:56:04;39.50;;;19.38;;
22786;SDS011;63134;52.020;4.714;2022-10-13T04:58:52;38.40;;;20.75;;
22786;SDS011;63134;52.020;4.714;2022-10-13T05:01:38;48.22;;;21.73;;
22786;SDS011;63134;52.020;4.714;2022-10-13T05:04:25;37.05;;;19.63;;
22786;SDS011;63134;52.020;4.714;2022-10-13T05:07:10;35.75;;;19.95;;
22786;SDS011;63134;52.020;4.714;2022-10-13T05:10:02;44.80;;;20.75;;
22786;SDS011;63134;52.020;4.714;2022-10-13T05:12:48;36.42;;;21.58;;
22786;SDS011;63134;52.020;4.714;2022-10-13T05:15:37;44.75;;;22.08;;
22786;SDS011;63134;52.020;4.714;2022-10-13T05:18:23;51.92;;;22.13;;
22786;SDS011;63134;52.020;4.714;2022-10-13T05:21:18;43.08;;;21.42;;
22786;SDS011;63134;52.020;4.714;2022-10-13T05:24:06;45.22;;;21.17;;
22786;SDS011;63134;52.020;4.714;2022-10-13T05:26:57;48.72;;;21.92;;
22786;SDS011;63134;52.020;4.714;2022-10-13T05:29:43;46.13;;;22.20;;
22786;SDS011;63134;52.020;4.714;2022-10-13T05:32:28;50.53;;;23.98;;
22786;SDS011;63134;52.020;4.714;2022-10-13T05:35:14;59.22;;;25.85;;
22786;SDS011;63134;52.020;4.714;2022-10-13T05:37:59;55.45;;;26.02;;
22786;SDS011;63134;52.020;4.714;2022-10-13T05:40:45;48.92;;;25.75;;
22786;SDS011;63134;52.020;4.714;2022-10-13T05:43:31;65.20;;;28.13;;
22786;SDS011;63134;52.020;4.714;2022-10-13T05:46:17;63.05;;;27.27;;
22786;SDS011;63134;52.020;4.714;2022-10-13T05:49:03;64.72;;;28.15;;
22786;SDS011;63134;52.020;4.714;2022-10-13T05:51:52;58.20;;;30.48;;
22786;SDS011;63134;52.020;4.714;2022-10-13T05:54:42;78.78;;;32.13;;
22786;SDS011;63134;52.020;4.714;2022-10-13T05:57:32;74.43;;;32.05;;
22786;SDS011;63134;52.020;4.714;2022-10-13T06:00:21;76.22;;;33.97;;
22786;SDS011;63134;52.020;4.714;2022-10-13T06:03:11;84.80;;;36.28;;
22786;SDS011;63134;52.020;4.714;2022-10-13T06:06:03;78.63;;;35.70;;
22786;SDS011;63134;52.020;4.714;2022-10-13T06:08:49;90.47;;;36.15;;
22786;SDS011;63134;52.020;4.714;2022-10-13T06:11:35;100.45;;;39.33;;
22786;SDS011;63134;52.020;4.714;2022-10-13T06:14:21;87.38;;;36.40;;
22786;SDS011;63134;52.020;4.714;2022-10-13T06:17:09;80.35;;;35.42;;
22786;SDS011;63134;52.020;4.714;2022-10-13T06:19:54;80.78;;;36.45;;
22786;SDS011;63134;52.020;4.714;2022-10-13T06:22:39;76.35;;;35.70;;
22786;SDS011;63134;52.020;4.714;2022-10-13T06:25:25;88.45;;;36.42;;
22786;SDS011;63134;52.020;4.714;2022-10-13T06:28:10;88.63;;;36.35;;
22786;SDS011;63134;52.020;4.714;2022-10-13T06:30:56;77.18;;;35.03;;
22786;SDS011;63134;52.020;4.714;2022-10-13T06:33:42;67.63;;;33.90;;
22786;SDS011;63134;52.020;4.714;2022-10-13T06:36:27;68.95;;;34.60;;
22786;SDS011;63134;52.020;4.714;2022-10-13T06:39:13;72.07;;;34.65;;
22786;SDS011;63134;52.020;4.714;2022-10-13T06:41:58;57.40;;;33.63;;
22786;SDS011;63134;52.020;4.714;2022-10-13T06:44:46;58.20;;;33.15;;
22786;SDS011;63134;52.020;4.714;2022-10-13T06:47:31;67.65;;;35.58;;
22786;SDS011;63134;52.020;4.714;2022-10-13T06:50:17;63.42;;;35.92;;
22786;SDS011;63134;52.020;4.714;2022-10-13T06:53:02;62.50;;;33.95;;
22786;SDS011;63134;52.020;4.714;2022-10-13T06:55:48;59.47;;;36.10;;
22786;SDS011;63134;52.020;4.714;2022-10-13T06:58:36;64.93;;;33.83;;
22786;SDS011;63134;52.020;4.714;2022-10-13T07:01:28;69.43;;;37.30;;
22786;SDS011;63134;52.020;4.714;2022-10-13T07:04:14;61.95;;;36.17;;
22786;SDS011;63134;52.020;4.714;2022-10-13T07:07:00;56.25;;;33.42;;
22786;SDS011;63134;52.020;4.714;2022-10-13T07:09:45;56.53;;;32.83;;
22786;SDS011;63134;52.020;4.714;2022-10-13T07:12:31;51.65;;;33.28;;
22786;SDS011;63134;52.020;4.714;2022-10-13T07:15:16;53.05;;;33.25;;
22786;SDS011;63134;52.020;4.714;2022-10-13T07:18:02;50.30;;;32.92;;
22786;SDS011;63134;52.020;4.714;2022-10-13T07:20:48;59.20;;;33.42;;
22786;SDS011;63134;52.020;4.714;2022-10-13T07:23:34;50.00;;;33.58;;
22786;SDS011;63134;52.020;4.714;2022-10-13T07:26:19;54.88;;;32.85;;
22786;SDS011;63134;52.020;4.714;2022-10-13T07:29:05;51.67;;;33.13;;
22786;SDS011;63134;52.020;4.714;2022-10-13T07:31:50;60.42;;;32.35;;
22786;SDS011;63134;52.020;4.714;2022-10-13T07:34:36;57.53;;;31.77;;
22786;SDS011;63134;52.020;4.714;2022-10-13T07:37:23;52.38;;;30.88;;
22786;SDS011;63134;52.020;4.714;2022-10-13T07:40:10;55.38;;;32.85;;
22786;SDS011;63134;52.020;4.714;2022-10-13T07:42:55;48.92;;;29.63;;
22786;SDS011;63134;52.020;4.714;2022-10-13T07:45:41;51.38;;;32.40;;
22786;SDS011;63134;52.020;4.714;2022-10-13T07:48:27;43.90;;;29.17;;
22786;SDS011;63134;52.020;4.714;2022-10-13T07:51:16;46.80;;;29.23;;
22786;SDS011;63134;52.020;4.714;2022-10-13T07:54:01;43.88;;;27.20;;
22786;SDS011;63134;52.020;4.714;2022-10-13T07:56:49;48.05;;;26.75;;
22786;SDS011;63134;52.020;4.714;2022-10-13T07:59:36;49.15;;;26.25;;
22786;SDS011;63134;52.020;4.714;2022-10-13T08:02:22;35.63;;;23.35;;
22786;SDS011;63134;52.020;4.714;2022-10-13T08:05:07;48.03;;;25.30;;
22786;SDS011;63134;52.020;4.714;2022-10-13T08:07:53;41.63;;;23.85;;
22786;SDS011;63134;52.020;4.714;2022-10-13T08:10:42;38.85;;;25.00;;
22786;SDS011;63134;52.020;4.714;2022-10-13T08:13:27;48.60;;;23.15;;
22786;SDS011;63134;52.020;4.714;2022-10-13T08:16:23;43.28;;;23.60;;
22786;SDS011;63134;52.020;4.714;2022-10-13T08:19:15;37.08;;;23.25;;
22786;SDS011;63134;52.020;4.714;2022-10-13T08:22:02;43.13;;;22.98;;
22786;SDS011;63134;52.020;4.714;2022-10-13T08:24:53;37.40;;;22.13;;
22786;SDS011;63134;52.020;4.714;2022-10-13T08:27:42;44.40;;;24.73;;
22786;SDS011;63134;52.020;4.714;2022-10-13T08:30:35;37.72;;;22.45;;
22786;SDS011;63134;52.020;4.714;2022-10-13T08:33:22;33.20;;;20.92;;
22786;SDS011;63134;52.020;4.714;2022-10-13T08:36:15;31.10;;;21.15;;
22786;SDS011;63134;52.020;4.714;2022-10-13T08:39:01;42.90;;;22.52;;
22786;SDS011;63134;52.020;4.714;2022-10-13T08:41:47;37.38;;;22.13;;
22786;SDS011;63134;52.020;4.714;2022-10-13T08:44:35;32.17;;;21.38;;
22786;SDS011;63134;52.020;4.714;2022-10-13T08:47:48;37.20;;;22.20;;
22786;SDS011;63134;52.020;4.714;2022-10-13T08:50:40;44.08;;;21.98;;
22786;SDS011;63134;52.020;4.714;2022-10-13T08:53:34;45.42;;;20.67;;
22786;SDS011;63134;52.020;4.714;2022-10-13T08:56:24;31.55;;;19.65;;
22786;SDS011;63134;52.020;4.714;2022-10-13T08:59:20;35.45;;;21.08;;
22786;SDS011;63134;52.020;4.714;2022-10-13T09:02:10;34.85;;;21.15;;
22786;SDS011;63134;52.020;4.714;2022-10-13T09:05:00;34.63;;;21.57;;
22786;SDS011;63134;52.020;4.714;2022-10-13T09:07:49;37.58;;;22.38;;
22786;SDS011;63134;52.020;4.714;2022-10-13T09:10:44;41.40;;;22.98;;
22786;SDS011;63134;52.020;4.714;2022-10-13T09:13:39;31.95;;;21.05;;
22786;SDS011;63134;52.020;4.714;2022-10-13T09:16:25;31.20;;;20.38;;
22786;SDS011;63134;52.020;4.714;2022-10-13T09:22:14;30.92;;;19.00;;
22786;SDS011;63134;52.020;4.714;2022-10-13T09:27:59;27.73;;;17.70;;
22786;SDS011;63134;52.020;4.714;2022-10-13T09:31:01;32.22;;;19.27;;
22786;SDS011;63134;52.020;4.714;2022-10-13T09:33:58;26.48;;;18.67;;
22786;SDS011;63134;52.020;4.714;2022-10-13T09:37:01;31.15;;;17.70;;
22786;SDS011;63134;52.020;4.714;2022-10-13T09:43:19;30.15;;;16.50;;
22786;SDS011;63134;52.020;4.714;2022-10-13T09:46:21;37.97;;;17.40;;
22786;SDS011;63134;52.020;4.714;2022-10-13T09:52:24;29.67;;;16.60;;
22786;SDS011;63134;52.020;4.714;2022-10-13T09:58:24;24.50;;;15.52;;
22786;SDS011;63134;52.020;4.714;2022-10-13T10:04:06;31.73;;;15.63;;
22786;SDS011;63134;52.020;4.714;2022-10-13T10:06:58;30.50;;;14.63;;
22786;SDS011;63134;52.020;4.714;2022-10-13T10:09:53;26.10;;;15.10;;
22786;SDS011;63134;52.020;4.714;2022-10-13T10:12:42;23.00;;;13.20;;
22786;SDS011;63134;52.020;4.714;2022-10-13T10:21:37;26.73;;;12.38;;
22786;SDS011;63134;52.020;4.714;2022-10-13T10:24:45;26.30;;;13.02;;
22786;SDS011;63134;52.020;4.714;2022-10-13T10:27:41;24.48;;;12.38;;
22786;SDS011;63134;52.020;4.714;2022-10-13T10:30:50;22.52;;;10.70;;
22786;SDS011;63134;52.020;4.714;2022-10-13T10:46:19;20.17;;;10.82;;
22786;SDS011;63134;52.020;4.714;2022-10-13T10:49:16;25.95;;;10.75;;
22786;SDS011;63134;52.020;4.714;2022-10-13T10:52:06;21.38;;;10.05;;
22786;SDS011;63134;52.020;4.714;2022-10-13T10:55:24;22.75;;;10.23;;
22786;SDS011;63134;52.020;4.714;2022-10-13T11:04:29;23.00;;;10.45;;
22786;SDS011;63134;52.020;4.714;2022-10-13T11:13:06;21.85;;;9.82;;
22786;SDS011;63134;52.020;4.714;2022-10-13T11:16:04;22.75;;;10.48;;
22786;SDS011;63134;52.020;4.714;2022-10-13T11:19:37;27.85;;;10.02;;
22786;SDS011;63134;52.020;4.714;2022-10-13T11:34:51;21.05;;;10.48;;
22786;SDS011;63134;52.020;4.714;2022-10-13T11:41:04;20.67;;;10.77;;
22786;SDS011;63134;52.020;4.714;2022-10-13T11:43:59;24.88;;;11.80;;
22786;SDS011;63134;52.020;4.714;2022-10-13T11:47:06;27.80;;;12.10;;
22786;SDS011;63134;52.020;4.714;2022-10-13T11:56:12;23.33;;;12.98;;
22786;SDS011;63134;52.020;4.714;2022-10-13T11:59:43;33.30;;;13.15;;
22786;SDS011;63134;52.020;4.714;2022-10-13T12:02:30;35.65;;;13.43;;
22786;SDS011;63134;52.020;4.714;2022-10-13T12:05:24;23.85;;;12.55;;
22786;SDS011;63134;52.020;4.714;2022-10-13T12:08:12;24.48;;;12.43;;
22786;SDS011;63134;52.020;4.714;2022-10-13T12:10:59;19.90;;;12.00;;
22786;SDS011;63134;52.020;4.714;2022-10-13T12:13:48;23.85;;;12.30;;
22786;SDS011;63134;52.020;4.714;2022-10-13T12:16:34;22.50;;;12.77;;
22786;SDS011;63134;52.020;4.714;2022-10-13T12:19:22;26.30;;;13.85;;
22786;SDS011;63134;52.020;4.714;2022-10-13T12:22:12;23.15;;;13.70;;
22786;SDS011;63134;52.020;4.714;2022-10-13T12:25:03;21.67;;;14.25;;
22786;SDS011;63134;52.020;4.714;2022-10-13T12:27:51;25.00;;;14.63;;
22786;SDS011;63134;52.020;4.714;2022-10-13T12:30:38;28.67;;;14.30;;
22786;SDS011;63134;52.020;4.714;2022-10-13T12:33:27;30.77;;;16.80;;
22786;SDS011;63134;52.020;4.714;2022-10-13T12:36:20;31.70;;;16.67;;
22786;SDS011;63134;52.020;4.714;2022-10-13T12:39:10;29.23;;;17.10;;
22786;SDS011;63134;52.020;4.714;2022-10-13T12:41:58;28.35;;;15.70;;
22786;SDS011;63134;52.020;4.714;2022-10-13T12:44:53;29.02;;;16.75;;
22786;SDS011;63134;52.020;4.714;2022-10-13T12:50:33;31.13;;;18.58;;
22786;SDS011;63134;52.020;4.714;2022-10-13T12:53:22;24.65;;;16.80;;
22786;SDS011;63134;52.020;4.714;2022-10-13T12:56:46;27.70;;;15.23;;
22786;SDS011;63134;52.020;4.714;2022-10-13T12:59:27;24.27;;;14.38;;
22786;SDS011;63134;52.020;4.714;2022-10-13T13:02:22;31.92;;;16.17;;
22786;SDS011;63134;52.020;4.714;2022-10-13T13:05:29;28.55;;;15.45;;
22786;SDS011;63134;52.020;4.714;2022-10-13T13:08:24;26.83;;;14.60;;
22786;SDS011;63134;52.020;4.714;2022-10-13T13:11:22;25.73;;;14.77;;
22786;SDS011;63134;52.020;4.714;2022-10-13T13:17:26;21.00;;;14.07;;
22786;SDS011;63134;52.020;4.714;2022-10-13T13:20:33;21.33;;;13.25;;
22786;SDS011;63134;52.020;4.714;2022-10-13T13:23:21;22.45;;;14.10;;
22786;SDS011;63134;52.020;4.714;2022-10-13T13:26:20;25.67;;;14.27;;
22786;SDS011;63134;52.020;4.714;2022-10-13T13:29:07;25.52;;;14.88;;
22786;SDS011;63134;52.020;4.714;2022-10-13T13:31:54;21.60;;;14.88;;
22786;SDS011;63134;52.020;4.714;2022-10-13T13:34:39;22.38;;;14.57;;
22786;SDS011;63134;52.020;4.714;2022-10-13T13:37:36;21.88;;;14.90;;
22786;SDS011;63134;52.020;4.714;2022-10-13T13:40:32;25.00;;;15.55;;
22786;SDS011;63134;52.020;4.714;2022-10-13T13:43:18;29.15;;;16.67;;
22786;SDS011;63134;52.020;4.714;2022-10-13T13:46:04;31.33;;;16.88;;
22786;SDS011;63134;52.020;4.714;2022-10-13T13:48:51;22.15;;;16.50;;
22786;SDS011;63134;52.020;4.714;2022-10-13T13:51:36;25.63;;;16.58;;
22786;SDS011;63134;52.020;4.714;2022-10-13T13:54:21;29.58;;;16.85;;
22786;SDS011;63134;52.020;4.714;2022-10-13T13:57:08;24.85;;;16.90;;
22786;SDS011;63134;52.020;4.714;2022-10-13T13:59:55;31.05;;;16.92;;
22786;SDS011;63134;52.020;4.714;2022-10-13T14:02:40;26.50;;;16.85;;
22786;SDS011;63134;52.020;4.714;2022-10-13T14:05:27;27.88;;;16.73;;
22786;SDS011;63134;52.020;4.714;2022-10-13T14:08:12;20.58;;;15.57;;
22786;SDS011;63134;52.020;4.714;2022-10-13T14:10:58;29.00;;;19.60;;
22786;SDS011;63134;52.020;4.714;2022-10-13T14:13:46;26.73;;;16.50;;
22786;SDS011;63134;52.020;4.714;2022-10-13T14:16:41;22.23;;;16.58;;
22786;SDS011;63134;52.020;4.714;2022-10-13T14:19:30;25.45;;;16.88;;
22786;SDS011;63134;52.020;4.714;2022-10-13T14:22:16;24.70;;;15.73;;
22786;SDS011;63134;52.020;4.714;2022-10-13T14:25:01;25.55;;;15.32;;
22786;SDS011;63134;52.020;4.714;2022-10-13T14:27:50;22.98;;;15.50;;
22786;SDS011;63134;52.020;4.714;2022-10-13T14:30:39;23.00;;;15.32;;
22786;SDS011;63134;52.020;4.714;2022-10-13T14:33:25;26.10;;;16.08;;
22786;SDS011;63134;52.020;4.714;2022-10-13T14:36:10;23.10;;;15.25;;
22786;SDS011;63134;52.020;4.714;2022-10-13T14:38:56;16.80;;;11.75;;
22786;SDS011;63134;52.020;4.714;2022-10-13T14:41:42;13.23;;;10.02;;
22786;SDS011;63134;52.020;4.714;2022-10-13T14:44:27;8.30;;;6.72;;
22786;SDS011;63134;52.020;4.714;2022-10-13T14:47:13;8.35;;;5.68;;
22786;SDS011;63134;52.020;4.714;2022-10-13T14:49:58;6.13;;;4.60;;
22786;SDS011;63134;52.020;4.714;2022-10-13T14:52:45;4.15;;;3.75;;
22786;SDS011;63134;52.020;4.714;2022-10-13T14:55:31;4.68;;;3.88;;
22786;SDS011;63134;52.020;4.714;2022-10-13T14:58:17;5.38;;;3.50;;
22786;SDS011;63134;52.020;4.714;2022-10-13T15:01:02;5.03;;;3.83;;
22786;SDS011;63134;52.020;4.714;2022-10-13T15:03:48;4.80;;;4.18;;
22786;SDS011;63134;52.020;4.714;2022-10-13T15:06:33;5.20;;;4.70;;
22786;SDS011;63134;52.020;4.714;2022-10-13T15:09:19;8.30;;;7.25;;
22786;SDS011;63134;52.020;4.714;2022-10-13T15:12:17;8.63;;;5.97;;
22786;SDS011;63134;52.020;4.714;2022-10-13T15:15:03;7.65;;;6.80;;
22786;SDS011;63134;52.020;4.714;2022-10-13T15:17:49;6.72;;;4.75;;
22786;SDS011;63134;52.020;4.714;2022-10-13T15:20:34;5.18;;;4.40;;
22786;SDS011;63134;52.020;4.714;2022-10-13T15:23:21;3.35;;;2.92;;
22786;SDS011;63134;52.020;4.714;2022-10-13T15:26:06;3.25;;;2.95;;
22786;SDS011;63134;52.020;4.714;2022-10-13T15:28:52;6.25;;;3.08;;
22786;SDS011;63134;52.020;4.714;2022-10-13T15:31:38;3.33;;;2.78;;
22786;SDS011;63134;52.020;4.714;2022-10-13T15:34:26;3.28;;;2.40;;
22786;SDS011;63134;52.020;4.714;2022-10-13T15:37:14;3.65;;;2.35;;
22786;SDS011;63134;52.020;4.714;2022-10-13T15:40:04;2.33;;;1.73;;
22786;SDS011;63134;52.020;4.714;2022-10-13T15:42:51;3.75;;;2.00;;
22786;SDS011;63134;52.020;4.714;2022-10-13T15:45:36;2.45;;;1.70;;
22786;SDS011;63134;52.020;4.714;2022-10-13T15:48:22;2.40;;;1.60;;
22786;SDS011;63134;52.020;4.714;2022-10-13T15:51:13;2.83;;;1.90;;
22786;SDS011;63134;52.020;4.714;2022-10-13T15:54:00;2.53;;;1.70;;
22786;SDS011;63134;52.020;4.714;2022-10-13T15:56:45;5.57;;;2.13;;
22786;SDS011;63134;52.020;4.714;2022-10-13T15:59:34;3.13;;;1.75;;
22786;SDS011;63134;52.020;4.714;2022-10-13T16:02:19;3.67;;;3.00;;
22786;SDS011;63134;52.020;4.714;2022-10-13T16:05:08;3.67;;;3.20;;
22786;SDS011;63134;52.020;4.714;2022-10-13T16:07:56;4.88;;;3.70;;
22786;SDS011;63134;52.020;4.714;2022-10-13T16:10:42;5.13;;;4.68;;
22786;SDS011;63134;52.020;4.714;2022-10-13T16:13:27;7.53;;;5.38;;
22786;SDS011;63134;52.020;4.714;2022-10-13T16:16:13;10.07;;;6.82;;
22786;SDS011;63134;52.020;4.714;2022-10-13T16:19:05;7.90;;;7.20;;
22786;SDS011;63134;52.020;4.714;2022-10-13T16:21:50;8.63;;;7.82;;
22786;SDS011;63134;52.020;4.714;2022-10-13T16:24:36;9.30;;;8.48;;
22786;SDS011;63134;52.020;4.714;2022-10-13T16:27:22;9.23;;;8.32;;
22786;SDS011;63134;52.020;4.714;2022-10-13T16:30:08;11.07;;;10.07;;
22786;SDS011;63134;52.020;4.714;2022-10-13T16:32:55;12.00;;;10.80;;
22786;SDS011;63134;52.020;4.714;2022-10-13T16:35:43;11.55;;;10.35;;
22786;SDS011;63134;52.020;4.714;2022-10-13T16:38:30;12.02;;;10.82;;
22786;SDS011;63134;52.020;4.714;2022-10-13T16:41:19;11.82;;;10.73;;
22786;SDS011;63134;52.020;4.714;2022-10-13T16:44:08;12.90;;;11.63;;
22786;SDS011;63134;52.020;4.714;2022-10-13T16:46:53;16.02;;;14.43;;
22786;SDS011;63134;52.020;4.714;2022-10-13T16:49:40;14.70;;;13.15;;
22786;SDS011;63134;52.020;4.714;2022-10-13T16:52:27;15.77;;;14.20;;
22786;SDS011;63134;52.020;4.714;2022-10-13T16:55:13;17.17;;;15.43;;
22786;SDS011;63134;52.020;4.714;2022-10-13T16:58:01;17.27;;;15.40;;
22786;SDS011;63134;52.020;4.714;2022-10-13T17:00:49;20.25;;;15.93;;
22786;SDS011;63134;52.020;4.714;2022-10-13T17:03:35;17.77;;;15.98;;
22786;SDS011;63134;52.020;4.714;2022-10-13T17:06:23;18.35;;;15.98;;
22786;SDS011;63134;52.020;4.714;2022-10-13T17:09:13;15.90;;;14.30;;
22786;SDS011;63134;52.020;4.714;2022-10-13T17:11:59;13.20;;;11.98;;
22786;SDS011;63134;52.020;4.714;2022-10-13T17:14:46;17.15;;;15.50;;
22786;SDS011;63134;52.020;4.714;2022-10-13T17:17:31;15.32;;;13.82;;
22786;SDS011;63134;52.020;4.714;2022-10-13T17:20:20;12.25;;;11.10;;
22786;SDS011;63134;52.020;4.714;2022-10-13T17:23:07;17.30;;;15.02;;
22786;SDS011;63134;52.020;4.714;2022-10-13T17:25:53;18.25;;;15.30;;
22786;SDS011;63134;52.020;4.714;2022-10-13T17:28:40;15.55;;;13.93;;
22786;SDS011;63134;52.020;4.714;2022-10-13T17:31:26;13.40;;;11.65;;
22786;SDS011;63134;52.020;4.714;2022-10-13T17:34:11;12.35;;;11.00;;
22786;SDS011;63134;52.020;4.714;2022-10-13T17:36:57;11.55;;;10.55;;
22786;SDS011;63134;52.020;4.714;2022-10-13T17:39:46;14.30;;;13.00;;
22786;SDS011;63134;52.020;4.714;2022-10-13T17:42:32;13.55;;;12.25;;
22786;SDS011;63134;52.020;4.714;2022-10-13T17:45:18;13.60;;;12.40;;
22786;SDS011;63134;52.020;4.714;2022-10-13T17:48:03;16.17;;;14.48;;
22786;SDS011;63134;52.020;4.714;2022-10-13T17:50:50;16.02;;;14.40;;
22786;SDS011;63134;52.020;4.714;2022-10-13T17:53:40;17.33;;;14.63;;
22786;SDS011;63134;52.020;4.714;2022-10-13T17:56:29;16.40;;;13.43;;
22786;SDS011;63134;52.020;4.714;2022-10-13T17:59:15;16.35;;;12.68;;
22786;SDS011;63134;52.020;4.714;2022-10-13T18:02:04;15.32;;;13.48;;
22786;SDS011;63134;52.020;4.714;2022-10-13T18:04:49;16.92;;;15.20;;